Time;durP1;ratioP1;P1;durP2;ratioP2;P2;SDS_P1;SDS_P2;PMS_P1;PMS_P2;Temp;Humidity;BMP_temperature;BMP_pressure;BME280_temperature;BME280_humidity;BME280_pressure;Samples;Min_cycle;Max_cycle;Signal;HPM_P1;HPM_P2
2022/07/21 00:02:06;;;;;;;0.13;0.13;;;17.90;99.90;;;;;;5019379;28;20042;-75
2022/07/21 00:04:32;;;;;;;0.50;0.40;;;17.90;99.90;;;;;;5028632;28;20096;-76
2022/07/21 00:06:57;;;;;;;0.50;0.35;;;17.90;99.90;;;;;;5042876;28;20100;-75
2022/07/21 00:09:23;;;;;;;0.00;0.00;;;17.90;99.90;;;;;;5042378;28;20049;-75
2022/07/21 00:11:49;;;;;;;0.45;0.32;;;18.00;99.90;;;;;;5040522;28;20046;-75
2022/07/21 00:14:14;;;;;;;0.43;0.38;;;18.20;99.90;;;;;;5032732;28;20076;-75
2022/07/21 00:16:41;;;;;;;0.17;0.17;;;17.90;99.90;;;;;;5020133;28;20042;-75
2022/07/21 00:19:07;;;;;;;0.28;0.20;;;17.90;99.90;;;;;;5018815;28;20567;-75
2022/07/21 00:21:34;;;;;;;0.35;0.35;;;17.90;99.90;;;;;;5019622;28;20440;-76
2022/07/21 00:23:59;;;;;;;0.00;0.00;;;17.90;99.90;;;;;;5023924;28;20041;-75
2022/07/21 00:26:25;;;;;;;1.38;0.90;;;17.90;99.90;;;;;;5039608;28;20404;-76
2022/07/21 00:28:50;;;;;;;0.40;0.40;;;17.90;99.90;;;;;;5039033;28;20136;-75
2022/07/21 00:31:16;;;;;;;0.13;0.13;;;17.90;99.90;;;;;;5039434;28;20037;-75
2022/07/21 00:33:42;;;;;;;1.88;0.52;;;17.90;99.90;;;;;;5037014;28;20042;-75
2022/07/21 00:36:08;;;;;;;0.35;0.30;;;17.90;99.90;;;;;;5037274;28;20437;-75
2022/07/21 00:38:33;;;;;;;0.70;0.55;;;17.90;99.90;;;;;;5036851;28;20045;-75
2022/07/21 00:40:59;;;;;;;0.60;0.40;;;17.90;99.90;;;;;;5039051;28;20156;-75
2022/07/21 00:43:25;;;;;;;0.40;0.40;;;18.20;99.90;;;;;;5036388;28;20045;-76
2022/07/21 00:45:55;;;;;;;0.20;0.20;;;17.90;99.90;;;;;;5023846;28;20050;-75
2022/07/21 00:48:21;;;;;;;1.90;0.50;;;17.80;99.90;;;;;;5036086;28;20041;-76
2022/07/21 00:50:46;;;;;;;2.25;0.85;;;17.80;99.90;;;;;;5022968;28;20114;-76
2022/07/21 00:53:12;;;;;;;0.63;0.52;;;17.80;99.90;;;;;;5024217;28;20046;-74
2022/07/21 00:55:41;;;;;;;0.45;0.35;;;17.80;99.90;;;;;;5050373;28;20040;-73
2022/07/21 00:58:07;;;;;;;0.65;0.63;;;17.80;99.90;;;;;;5056333;28;20061;-74
2022/07/21 01:00:32;;;;;;;1.85;0.60;;;17.90;99.90;;;;;;5057298;28;20085;-74
2022/07/21 01:02:58;;;;;;;0.70;0.55;;;17.90;99.90;;;;;;5057383;28;20089;-73
2022/07/21 01:05:24;;;;;;;0.82;0.65;;;17.80;99.90;;;;;;5044846;28;20022;-75
2022/07/21 01:07:53;;;;;;;0.93;0.68;;;17.80;99.90;;;;;;5039490;28;20097;-74
2022/07/21 01:10:22;;;;;;;0.75;0.50;;;17.80;99.90;;;;;;5040179;28;20032;-74
2022/07/21 01:12:48;;;;;;;0.52;0.38;;;17.70;99.90;;;;;;5038611;28;20021;-73
2022/07/21 01:15:15;;;;;;;3.13;1.20;;;17.80;99.90;;;;;;5050720;28;20041;-72
2022/07/21 01:17:41;;;;;;;0.95;0.82;;;17.80;99.90;;;;;;5059159;28;20041;-75
2022/07/21 01:20:10;;;;;;;0.75;0.50;;;17.70;99.90;;;;;;5059582;28;20056;-75
2022/07/21 01:22:39;;;;;;;1.50;1.40;;;17.70;99.90;;;;;;5059100;28;20045;-74
2022/07/21 01:25:06;;;;;;;0.40;0.30;;;17.80;99.90;;;;;;5059021;28;20029;-73
2022/07/21 01:27:31;;;;;;;0.65;0.40;;;17.70;99.90;;;;;;5059803;28;20048;-74
2022/07/21 01:29:58;;;;;;;3.60;0.85;;;17.70;99.90;;;;;;5059877;28;20029;-73
2022/07/21 01:32:24;;;;;;;0.65;0.50;;;17.70;99.90;;;;;;5053554;28;20025;-72
2022/07/21 01:34:50;;;;;;;1.08;0.43;;;17.70;99.90;;;;;;5047375;28;20021;-73
2022/07/21 01:37:23;;;;;;;1.55;0.50;;;17.80;99.90;;;;;;5058939;28;20117;-73
2022/07/21 01:42:42;;;;;;;0.85;0.60;;;17.70;99.90;;;;;;5054177;28;20088;-73
2022/07/21 01:45:08;;;;;;;0.52;0.45;;;17.80;99.90;;;;;;5038165;28;20465;-71
2022/07/21 01:47:34;;;;;;;0.50;0.50;;;17.90;99.90;;;;;;5034798;28;20033;-72
2022/07/21 01:50:00;;;;;;;0.65;0.55;;;17.90;99.90;;;;;;5033024;28;20076;-73
2022/07/21 01:52:26;;;;;;;0.95;0.50;;;18.90;99.90;;;;;;5020099;28;20050;-72
2022/07/21 01:54:51;;;;;;;1.05;0.80;;;17.80;99.90;;;;;;5041135;28;20072;-73
2022/07/21 01:57:17;;;;;;;7.60;0.73;;;17.80;99.90;;;;;;5084535;22;20076;-92
2022/07/21 01:59:44;;;;;;;1.20;1.10;;;17.80;99.90;;;;;;5050059;28;20081;-92
2022/07/21 02:02:10;;;;;;;1.75;0.95;;;17.80;99.90;;;;;;5037731;28;20060;-91
2022/07/21 02:04:35;;;;;;;0.10;0.10;;;17.70;99.90;;;;;;5038042;28;20033;-90
2022/07/21 02:07:02;;;;;;;1.40;0.77;;;17.70;99.90;;;;;;5039758;28;20105;-92
2022/07/21 02:09:28;;;;;;;0.77;0.70;;;17.70;99.90;;;;;;5054827;28;20049;-91
2022/07/21 02:11:54;;;;;;;2.35;1.10;;;17.70;99.90;;;;;;5038698;28;20140;-91
2022/07/21 02:14:19;;;;;;;0.35;0.35;;;17.70;99.90;;;;;;5042005;28;20080;-91
2022/07/21 02:16:48;;;;;;;0.30;0.28;;;18.00;99.90;;;;;;5043470;28;20049;-89
2022/07/21 02:19:14;;;;;;;0.32;0.25;;;18.60;99.90;;;;;;5025106;28;20079;-92
2022/07/21 02:21:39;;;;;;;0.22;0.22;;;18.30;99.90;;;;;;5042569;28;20097;-92
2022/07/21 02:24:08;;;;;;;0.80;0.43;;;17.90;99.90;;;;;;5042552;28;20038;-93
2022/07/21 02:26:34;;;;;;;1.05;0.93;;;17.80;99.90;;;;;;5060006;28;20407;-92
2022/07/21 02:29:00;;;;;;;1.17;0.82;;;17.80;99.90;;;;;;5041533;28;20055;-91
2022/07/21 02:31:26;;;;;;;0.80;0.50;;;18.80;99.90;;;;;;5039675;28;20124;-92
2022/07/21 02:33:51;;;;;;;1.08;0.75;;;17.80;99.90;;;;;;5042560;28;20045;-91
2022/07/21 02:36:17;;;;;;;1.95;1.05;;;17.80;99.90;;;;;;5043309;28;20498;-92
2022/07/21 02:38:42;;;;;;;1.13;0.90;;;17.80;99.90;;;;;;5040868;28;20535;-93
2022/07/21 02:41:08;;;;;;;1.85;1.15;;;17.90;99.90;;;;;;5024069;28;20045;-93
2022/07/21 02:43:34;;;;;;;0.68;0.55;;;18.50;99.90;;;;;;5043642;28;20045;-92
2022/07/21 02:45:59;;;;;;;0.45;0.45;;;17.80;99.90;;;;;;5030374;28;20038;-93
2022/07/21 02:48:25;;;;;;;1.13;0.98;;;17.80;99.90;;;;;;5048969;28;20053;-92
2022/07/21 02:50:50;;;;;;;1.85;1.75;;;17.70;99.90;;;;;;5048371;28;20068;-94
2022/07/21 02:53:19;;;;;;;0.13;0.13;;;17.70;99.90;;;;;;5055461;28;20025;-92
2022/07/21 02:55:52;;;;;;;1.02;0.70;;;17.30;99.90;;;;;;5042125;28;20067;-90
2022/07/21 02:58:21;;;;;;;1.80;1.05;;;18.20;99.90;;;;;;5058517;28;20037;-90
2022/07/21 03:00:54;;;;;;;0.63;0.50;;;18.80;99.90;;;;;;5058874;28;20025;-91
2022/07/21 03:03:20;;;;;;;0.45;0.45;;;17.70;99.90;;;;;;5058042;28;20101;-91
2022/07/21 03:05:50;;;;;;;0.70;0.70;;;17.70;99.90;;;;;;5044282;28;20049;-92
2022/07/21 03:08:16;;;;;;;1.52;1.05;;;18.10;99.90;;;;;;5044306;28;20041;-93
2022/07/21 03:10:42;;;;;;;4.70;1.20;;;17.80;99.90;;;;;;5049243;28;20037;-93
2022/07/21 03:13:09;;;;;;;0.60;0.50;;;17.70;99.90;;;;;;5045176;28;20124;-93
2022/07/21 03:15:35;;;;;;;2.17;1.30;;;18.30;99.90;;;;;;5028987;28;20052;-93
2022/07/21 03:18:00;;;;;;;1.08;0.65;;;17.80;99.90;;;;;;5046723;28;20465;-93
2022/07/21 03:20:29;;;;;;;1.00;0.90;;;17.80;99.90;;;;;;5043546;28;20043;-93
2022/07/21 03:22:54;;;;;;;4.32;1.88;;;17.80;99.90;;;;;;5043056;28;20080;-92
2022/07/21 03:25:20;;;;;;;0.60;0.55;;;17.90;99.90;;;;;;5041800;28;20495;-92
2022/07/21 03:27:47;;;;;;;2.08;1.27;;;17.90;99.90;;;;;;5041098;28;20052;-91
2022/07/21 03:30:14;;;;;;;6.68;2.08;;;17.90;99.90;;;;;;5038915;28;20148;-92
2022/07/21 03:32:41;;;;;;;2.22;1.55;;;17.90;99.90;;;;;;5039271;28;20045;-92
2022/07/21 03:35:10;;;;;;;0.95;0.60;;;17.80;99.90;;;;;;5038771;28;20053;-91
2022/07/21 03:37:49;;;;;;;2.50;0.77;;;17.80;99.90;;;;;;5041079;28;20052;-92
2022/07/21 03:40:17;;;;;;;0.82;0.63;;;17.70;99.90;;;;;;5057331;28;20021;-89
2022/07/21 03:42:43;;;;;;;1.10;0.88;;;18.80;99.90;;;;;;5058205;28;20033;-91
2022/07/21 03:45:10;;;;;;;0.47;0.38;;;17.70;99.90;;;;;;5058693;28;20050;-90
2022/07/21 03:47:36;;;;;;;0.75;0.40;;;17.90;99.90;;;;;;5058726;28;20021;-89
2022/07/21 03:50:03;;;;;;;0.47;0.47;;;18.10;99.90;;;;;;5041641;28;20040;-90
2022/07/21 03:52:28;;;;;;;0.30;0.20;;;17.70;99.90;;;;;;5058012;28;20033;-90
2022/07/21 03:55:07;;;;;;;0.43;0.43;;;17.70;99.90;;;;;;5041656;28;20049;-89
2022/07/21 03:57:43;;;;;;;2.53;1.38;;;17.80;99.90;;;;;;5057630;28;20068;-91
2022/07/21 04:00:22;;;;;;;0.45;0.45;;;17.80;99.90;;;;;;5047868;28;20069;-92
2022/07/21 04:02:48;;;;;;;0.20;0.20;;;18.80;99.90;;;;;;5049320;28;20052;-91
2022/07/21 04:05:16;;;;;;;1.17;0.85;;;17.80;99.90;;;;;;5053388;28;20022;-93
2022/07/21 04:07:46;;;;;;;1.92;1.05;;;18.80;99.90;;;;;;5052884;28;20400;-91
2022/07/21 04:10:14;;;;;;;2.60;1.83;;;17.20;99.90;;;;;;5052025;28;20045;-90
2022/07/21 04:12:40;;;;;;;1.60;1.50;;;17.30;99.90;;;;;;5056715;28;20022;-89
2022/07/21 04:15:08;;;;;;;0.30;0.30;;;18.90;99.90;;;;;;5040495;28;20084;-90
2022/07/21 04:17:34;;;;;;;3.15;1.02;;;17.70;99.90;;;;;;5056236;28;20057;-93
2022/07/21 04:20:00;;;;;;;0.50;0.40;;;17.80;99.90;;;;;;5042999;28;20042;-93
2022/07/21 04:22:26;;;;;;;3.75;1.67;;;17.80;99.90;;;;;;5041198;28;20049;-93
2022/07/21 04:24:51;;;;;;;0.90;0.70;;;19.00;99.90;;;;;;5041015;28;20069;-92
2022/07/21 04:27:17;;;;;;;0.43;0.43;;;17.80;99.90;;;;;;5043083;28;20080;-93
2022/07/21 04:29:43;;;;;;;0.50;0.50;;;17.90;99.90;;;;;;5044428;28;20116;-93
2022/07/21 04:32:08;;;;;;;1.85;0.93;;;17.80;99.90;;;;;;5043503;28;20045;-92
2022/07/21 04:34:34;;;;;;;0.70;0.70;;;18.60;99.90;;;;;;5042551;28;20045;-94
2022/07/21 04:36:59;;;;;;;0.30;0.30;;;17.90;99.90;;;;;;5041575;28;20041;-92
2022/07/21 04:39:25;;;;;;;1.50;0.90;;;18.00;99.90;;;;;;5042543;28;20046;-92
2022/07/21 04:41:51;;;;;;;0.43;0.43;;;17.90;99.90;;;;;;5041937;28;20045;-92
2022/07/21 04:44:18;;;;;;;0.75;0.75;;;18.00;99.90;;;;;;5026588;28;20041;-93
2022/07/21 04:46:43;;;;;;;1.27;1.10;;;18.00;99.90;;;;;;5056478;28;20029;-91
2022/07/21 04:49:09;;;;;;;3.25;1.08;;;18.00;99.90;;;;;;5041362;28;20032;-90
2022/07/21 04:51:35;;;;;;;3.00;1.25;;;18.30;99.90;;;;;;5041354;28;20041;-90
2022/07/21 04:54:00;;;;;;;2.13;1.40;;;18.10;99.90;;;;;;5058498;28;20092;-92
2022/07/21 04:56:29;;;;;;;2.65;1.35;;;18.50;99.90;;;;;;5057887;28;20060;-90
2022/07/21 04:58:54;;;;;;;2.03;1.48;;;18.20;99.90;;;;;;5053742;28;20077;-92
2022/07/21 05:01:20;;;;;;;1.73;1.25;;;18.30;99.90;;;;;;5048111;28;20045;-92
2022/07/21 05:03:45;;;;;;;0.80;0.80;;;18.40;99.90;;;;;;5046166;28;20533;-93
2022/07/21 05:06:12;;;;;;;2.17;1.17;;;18.50;99.90;;;;;;5045760;28;20491;-92
2022/07/21 05:08:39;;;;;;;1.70;1.15;;;18.80;99.90;;;;;;5049009;28;20048;-91
2022/07/21 05:11:05;;;;;;;2.65;1.58;;;18.50;99.90;;;;;;5046921;28;20079;-91
2022/07/21 05:13:30;;;;;;;2.05;1.33;;;18.30;99.90;;;;;;5046698;28;20049;-92
2022/07/21 05:15:56;;;;;;;5.35;2.20;;;19.50;99.90;;;;;;5044918;28;20037;-90
2022/07/21 05:18:22;;;;;;;2.22;1.05;;;18.70;99.90;;;;;;5026566;28;20048;-90
2022/07/21 05:20:47;;;;;;;3.63;2.03;;;18.50;99.90;;;;;;5043450;28;20053;-90
2022/07/21 05:23:14;;;;;;;17.95;1.30;;;18.70;99.90;;;;;;5044487;28;20050;-92
2022/07/21 05:25:40;;;;;;;1.95;1.75;;;18.50;99.90;;;;;;5043996;28;20055;-92
2022/07/21 05:28:05;;;;;;;0.73;0.73;;;18.60;99.90;;;;;;5043267;28;20033;-90
2022/07/21 05:30:31;;;;;;;4.47;2.83;;;18.60;99.90;;;;;;5041317;28;20041;-92
2022/07/21 05:33:00;;;;;;;5.47;2.25;;;18.60;99.90;;;;;;5048813;28;20098;-94
2022/07/21 05:35:26;;;;;;;2.15;1.75;;;18.60;99.90;;;;;;5052458;28;20072;-92
2022/07/21 05:37:52;;;;;;;1.00;0.90;;;18.70;99.90;;;;;;5034504;28;20136;-91
2022/07/21 05:40:17;;;;;;;2.30;1.75;;;18.70;99.90;;;;;;5031248;28;20042;-92
2022/07/21 05:42:43;;;;;;;2.40;2.17;;;18.80;99.90;;;;;;5046608;28;20080;-92
2022/07/21 05:45:15;;;;;;;2.03;1.30;;;18.90;99.90;;;;;;5048225;28;20041;-92
2022/07/21 05:47:42;;;;;;;1.80;1.60;;;19.00;99.90;;;;;;5048494;28;20049;-91
2022/07/21 05:50:09;;;;;;;2.33;2.13;;;19.00;99.90;;;;;;5047383;28;20050;-92
2022/07/21 05:52:35;;;;;;;3.15;2.05;;;19.10;99.90;;;;;;5030578;28;20041;-91
2022/07/21 05:55:01;;;;;;;3.97;2.75;;;19.10;99.90;;;;;;5044750;28;20061;-94
2022/07/21 05:57:29;;;;;;;3.22;2.05;;;19.10;99.90;;;;;;5045472;28;20053;-93
2022/07/21 05:59:55;;;;;;;1.65;1.35;;;19.20;99.90;;;;;;5048809;28;20052;-92
2022/07/21 06:02:21;;;;;;;4.63;1.50;;;19.30;99.90;;;;;;5027241;28;20069;-92
2022/07/21 06:04:48;;;;;;;3.78;2.60;;;19.60;99.90;;;;;;5041700;28;20054;-90
2022/07/21 06:07:13;;;;;;;1.65;1.52;;;21.10;99.90;;;;;;5037321;28;20179;-90
2022/07/21 06:09:39;;;;;;;7.53;2.00;;;20.20;99.90;;;;;;5040865;28;20076;-89
2022/07/21 06:12:05;;;;;;;6.18;2.28;;;20.70;99.90;;;;;;5048580;28;20055;-87
2022/07/21 06:14:33;;;;;;;2.88;2.03;;;21.30;99.90;;;;;;5043613;28;20056;-86
2022/07/21 06:16:59;;;;;;;3.20;2.10;;;22.60;99.90;;;;;;5042281;28;20038;-86
2022/07/21 06:19:25;;;;;;;5.38;2.85;;;22.40;99.90;;;;;;5042113;28;20083;-87
2022/07/21 06:22:03;;;;;;;;;;;;;;;;;;;;;
2022/07/21 06:24:39;;;;;;;1.90;1.80;;;22.30;99.90;;;;;;5043706;28;20076;-87
2022/07/21 06:27:05;;;;;;;2.08;1.88;;;22.70;99.90;;;;;;5047437;28;20059;-86
2022/07/21 06:29:31;;;;;;;2.80;2.58;;;22.30;99.90;;;;;;5041028;28;20041;-86
2022/07/21 06:31:56;;;;;;;1.27;1.17;;;22.10;99.90;;;;;;5041573;28;20085;-85
2022/07/21 06:34:22;;;;;;;1.63;1.25;;;21.60;99.90;;;;;;5052249;28;20476;-87
2022/07/21 06:36:48;;;;;;;2.70;2.22;;;21.00;99.90;;;;;;5049783;28;20057;-86
2022/07/21 06:39:13;;;;;;;6.20;2.72;;;20.60;99.90;;;;;;5059253;28;20026;-89
2022/07/21 06:41:39;;;;;;;4.15;2.50;;;20.20;99.90;;;;;;5042367;28;20033;-88
2022/07/21 06:44:05;;;;;;;2.00;1.55;;;20.00;99.90;;;;;;5052423;28;20049;-86
2022/07/21 06:46:34;;;;;;;5.47;3.00;;;19.90;99.90;;;;;;5044226;28;20068;-87
2022/07/21 06:49:04;;;;;;;1.92;1.45;;;20.00;99.90;;;;;;5044290;28;20053;-87
2022/07/21 06:51:30;;;;;;;3.67;2.22;;;20.40;99.90;;;;;;5022465;28;20105;-87
2022/07/21 06:53:55;;;;;;;2.45;2.13;;;21.10;99.90;;;;;;5038241;28;20069;-88
2022/07/21 06:56:21;;;;;;;4.40;2.03;;;21.10;99.90;;;;;;5042530;28;20041;-86
2022/07/21 06:58:47;;;;;;;3.20;2.10;;;20.40;99.90;;;;;;5046426;28;20112;-87
2022/07/21 07:01:16;;;;;;;15.10;2.25;;;20.10;99.90;;;;;;5047234;28;20077;-86
2022/07/21 07:03:42;;;;;;;3.55;2.75;;;20.50;99.90;;;;;;5052021;28;20049;-88
2022/07/21 07:06:08;;;;;;;3.63;2.72;;;19.80;99.90;;;;;;5050704;28;20123;-87
2022/07/21 07:08:38;;;;;;;3.80;2.47;;;19.80;99.90;;;;;;5028257;28;20056;-88
2022/07/21 07:11:04;;;;;;;0.95;0.85;;;20.50;99.90;;;;;;5040678;28;20060;-88
2022/07/21 07:13:32;;;;;;;6.03;2.30;;;19.60;99.90;;;;;;5059071;28;20053;-90
2022/07/21 07:16:48;;;;;;;3.72;2.25;;;19.60;99.90;;;;;;5058461;28;20029;-89
2022/07/21 07:19:13;;;;;;;3.10;2.08;;;19.60;99.90;;;;;;5059043;28;20089;-87
2022/07/21 07:21:39;;;;;;;1.55;1.15;;;19.70;99.90;;;;;;5058936;28;20030;-89
2022/07/21 07:24:05;;;;;;;2.42;1.85;;;19.90;99.90;;;;;;5058416;28;20097;-88
2022/07/21 07:26:30;;;;;;;4.40;1.85;;;19.80;99.90;;;;;;5043873;28;20037;-88
2022/07/21 07:28:57;;;;;;;3.10;2.28;;;19.90;99.90;;;;;;5039691;28;20048;-88
2022/07/21 07:31:22;;;;;;;3.22;2.28;;;19.90;99.90;;;;;;5040824;28;20076;-88
2022/07/21 07:33:48;;;;;;;3.80;1.33;;;19.90;99.90;;;;;;5040462;28;20060;-88
2022/07/21 07:36:13;;;;;;;17.13;3.33;;;19.80;99.90;;;;;;5037668;28;20380;-88
2022/07/21 07:38:40;;;;;;;3.55;1.98;;;20.90;99.90;;;;;;5039193;28;20127;-88
2022/07/21 07:41:05;;;;;;;3.10;2.22;;;19.90;99.90;;;;;;5037439;28;20206;-88
2022/07/21 07:43:31;;;;;;;2.97;1.50;;;20.40;99.90;;;;;;5038265;28;20045;-88
2022/07/21 07:46:01;;;;;;;3.38;1.55;;;20.80;99.90;;;;;;5040990;28;20060;-89
2022/07/21 07:48:27;;;;;;;3.03;1.95;;;20.10;99.90;;;;;;5038745;28;20103;-89
2022/07/21 07:50:52;;;;;;;2.55;1.73;;;20.20;99.90;;;;;;5037109;28;20120;-91
2022/07/21 07:53:18;;;;;;;13.80;3.05;;;19.70;99.90;;;;;;5037410;28;20080;-89
2022/07/21 07:55:43;;;;;;;2.60;1.73;;;21.20;99.90;;;;;;5037649;28;20049;-87
2022/07/21 07:58:09;;;;;;;4.28;2.95;;;19.30;99.90;;;;;;5038293;28;20049;-88
2022/07/21 08:00:35;;;;;;;4.57;2.60;;;20.10;99.90;;;;;;5019995;28;20049;-89
2022/07/21 08:03:01;;;;;;;2.03;1.50;;;20.20;99.90;;;;;;5041846;28;20132;-88
2022/07/21 08:05:27;;;;;;;5.80;2.30;;;20.40;99.90;;;;;;5039425;28;20130;-89
2022/07/21 08:07:52;;;;;;;1.85;1.20;;;21.20;99.90;;;;;;5040354;28;20124;-89
2022/07/21 08:10:18;;;;;;;4.18;1.95;;;21.20;99.90;;;;;;5042730;28;20041;-89
2022/07/21 08:12:57;;;;;;;3.20;2.40;;;20.80;99.90;;;;;;5041687;28;20053;-89
2022/07/21 08:15:34;;;;;;;3.30;2.17;;;20.90;99.90;;;;;;5056933;28;20032;-89
2022/07/21 08:18:01;;;;;;;4.53;1.63;;;20.90;99.90;;;;;;5057948;28;20060;-88
2022/07/21 08:20:27;;;;;;;3.70;2.28;;;21.90;99.90;;;;;;5058074;28;20025;-89
2022/07/21 08:22:52;;;;;;;3.10;2.28;;;21.20;99.90;;;;;;5052583;28;20152;-89
2022/07/21 08:25:18;;;;;;;2.60;2.22;;;21.30;99.90;;;;;;5041726;28;20034;-89
2022/07/21 08:27:44;;;;;;;2.45;1.80;;;21.50;99.90;;;;;;5042023;28;20121;-90
2022/07/21 08:30:10;;;;;;;2.58;1.70;;;21.60;99.90;;;;;;5040289;28;20099;-88
2022/07/21 08:32:36;;;;;;;3.83;2.83;;;21.70;99.90;;;;;;5041933;28;20052;-92
2022/07/21 08:35:01;;;;;;;4.93;1.50;;;21.90;99.90;;;;;;5042100;28;20053;-90
2022/07/21 08:37:27;;;;;;;3.03;2.10;;;23.30;99.90;;;;;;5040060;28;20122;-89
2022/07/21 08:39:52;;;;;;;8.75;3.20;;;22.50;99.90;;;;;;5041173;28;20045;-89
2022/07/21 08:42:18;;;;;;;3.35;1.45;;;23.10;99.90;;;;;;5040865;28;20038;-90
2022/07/21 08:44:44;;;;;;;3.67;2.30;;;23.40;99.90;;;;;;5040370;28;20045;-89
2022/07/21 08:47:10;;;;;;;2.65;2.10;;;23.70;99.90;;;;;;5043425;28;20080;-88
2022/07/21 08:49:36;;;;;;;1.55;1.25;;;24.00;99.90;;;;;;5041522;28;20053;-89
2022/07/21 08:52:06;;;;;;;6.20;1.83;;;24.10;99.90;;;;;;5040446;28;20049;-89
2022/07/21 08:54:32;;;;;;;4.72;2.90;;;24.20;99.90;;;;;;5039011;28;20049;-91
2022/07/21 08:57:00;;;;;;;2.20;1.75;;;24.30;99.90;;;;;;5039077;28;20068;-89
2022/07/21 08:59:26;;;;;;;3.35;2.08;;;24.90;99.90;;;;;;5039055;28;20045;-89
2022/07/21 09:01:52;;;;;;;3.53;2.30;;;25.10;99.90;;;;;;5040187;28;20423;-89
2022/07/21 09:04:29;;;;;;;2.53;1.70;;;25.00;99.90;;;;;;5039119;28;20041;-90
2022/07/21 09:07:03;;;;;;;4.28;1.33;;;25.10;99.90;;;;;;5039940;28;20037;-89
2022/07/21 09:09:31;;;;;;;2.20;1.83;;;25.20;99.90;;;;;;5038496;28;20045;-90
2022/07/21 09:11:58;;;;;;;2.97;1.98;;;26.00;99.90;;;;;;5039816;28;20056;-89
2022/07/21 09:14:34;;;;;;;4.15;1.92;;;26.60;99.90;;;;;;5022110;28;20069;-89
2022/07/21 09:17:02;;;;;;;1.63;1.38;;;26.60;99.90;;;;;;5037769;28;20487;-91
2022/07/21 09:19:38;;;;;;;1.60;1.33;;;26.60;99.90;;;;;;5037403;28;20436;-89
2022/07/21 09:22:07;;;;;;;3.88;2.30;;;26.20;99.90;;;;;;5039300;28;20060;-89
2022/07/21 09:24:38;;;;;;;3.67;2.10;;;27.00;99.90;;;;;;5036116;28;20046;-90
2022/07/21 09:27:07;;;;;;;5.05;1.92;;;27.80;99.90;;;;;;5036425;28;20037;-90
2022/07/21 09:29:53;;;;;;;2.08;1.63;;;27.60;99.90;;;;;;5038661;28;20502;-88
2022/07/21 09:32:49;;;;;;;4.35;1.65;;;27.60;99.90;;;;;;5038490;28;20395;-90
2022/07/21 09:35:15;;;;;;;;;;;28.00;99.90;;;;;;5038338;28;20054;-89
2022/07/21 09:37:44;;;;;;;1.70;1.60;;;29.10;99.90;;;;;;5039639;28;19992;-88
2022/07/21 09:40:13;;;;;;;1.20;1.10;;;29.80;98.60;;;;;;5039163;28;20096;-88
2022/07/21 09:42:49;;;;;;;0.93;0.93;;;29.90;92.40;;;;;;5038722;28;20041;-89
2022/07/21 09:45:17;;;;;;;2.33;1.85;;;29.30;94.30;;;;;;5038604;28;20128;-89
2022/07/21 09:47:45;;;;;;;1.67;1.40;;;28.90;97.10;;;;;;5039272;28;20053;-88
2022/07/21 09:50:13;;;;;;;1.88;1.30;;;28.40;99.90;;;;;;5039426;28;20050;-89
2022/07/21 09:52:44;;;;;;;4.95;1.42;;;29.00;97.70;;;;;;5040184;28;20038;-90
2022/07/21 09:55:16;;;;;;;6.85;2.70;;;28.20;91.60;;;;;;5060617;28;20021;-89
2022/07/21 09:57:42;;;;;;;3.22;1.80;;;27.60;99.90;;;;;;5060119;28;20037;-88
2022/07/21 10:00:14;;;;;;;1.98;1.30;;;27.20;99.90;;;;;;5059770;28;20041;-87
2022/07/21 10:02:43;;;;;;;0.52;0.50;;;26.80;99.90;;;;;;5039880;28;20465;-90
2022/07/21 10:05:11;;;;;;;1.98;1.45;;;26.50;99.90;;;;;;5037797;28;20045;-87
2022/07/21 10:07:39;;;;;;;5.72;2.58;;;26.30;99.90;;;;;;5038147;28;20049;-88
2022/07/21 10:10:05;;;;;;;3.00;1.80;;;25.90;99.90;;;;;;5038439;28;20060;-87
2022/07/21 10:12:31;;;;;;;2.97;1.92;;;25.50;99.90;;;;;;5037461;28;20377;-88
2022/07/21 10:14:57;;;;;;;4.13;2.67;;;25.20;99.90;;;;;;5037745;28;20053;-89
2022/07/21 10:17:24;;;;;;;2.58;1.73;;;25.00;99.90;;;;;;5037961;28;20045;-88
2022/07/21 10:20:24;;;;;;;1.98;1.38;;;24.80;99.90;;;;;;5037000;28;20045;-88
2022/07/21 10:23:27;;;;;;;4.75;1.77;;;24.70;99.90;;;;;;5037706;28;20042;-88
2022/07/21 10:25:53;;;;;;;2.05;1.70;;;24.60;99.90;;;;;;5037499;28;20049;-89
2022/07/21 10:28:27;;;;;;;2.30;1.83;;;24.40;99.90;;;;;;5037151;28;20037;-89
2022/07/21 10:30:58;;;;;;;3.05;2.33;;;24.40;99.90;;;;;;5038012;28;20038;-88
2022/07/21 10:33:42;;;;;;;2.53;2.30;;;24.30;99.90;;;;;;5037319;28;20061;-88
2022/07/21 10:36:09;;;;;;;5.40;2.80;;;24.30;99.90;;;;;;5037970;28;20060;-88
2022/07/21 10:38:36;;;;;;;4.63;3.00;;;24.30;99.90;;;;;;5037625;28;20506;-88
2022/07/21 10:41:05;;;;;;;2.33;2.03;;;24.20;99.90;;;;;;5036766;28;20045;-89
2022/07/21 10:43:35;;;;;;;6.32;3.50;;;24.40;99.90;;;;;;5037319;28;20056;-87
2022/07/21 10:46:01;;;;;;;6.32;2.13;;;23.80;99.90;;;;;;5035568;28;20049;-88
2022/07/21 10:48:36;;;;;;;5.75;3.63;;;24.50;99.90;;;;;;5035523;28;20096;-88
2022/07/21 10:51:14;;;;;;;4.10;2.90;;;23.70;99.90;;;;;;5035312;28;20075;-88
2022/07/21 10:53:40;;;;;;;4.47;3.33;;;24.00;99.90;;;;;;5034533;28;20557;-86
2022/07/21 10:56:07;;;;;;;2.72;1.80;;;23.80;99.90;;;;;;5051302;28;20033;-88
2022/07/21 11:06:25;;;;;;;3.22;2.00;;;23.70;99.90;;;;;;5059148;28;20044;-88
2022/07/21 11:09:03;;;;;;;3.95;1.70;;;23.90;99.90;;;;;;5058337;28;21097;-88
2022/07/21 11:11:40;;;;;;;9.15;2.95;;;24.10;99.90;;;;;;5057211;28;20034;-88
2022/07/21 11:14:10;;;;;;;6.50;3.53;;;24.20;99.90;;;;;;5035213;28;20124;-86
2022/07/21 11:16:46;;;;;;;4.30;2.45;;;24.80;99.90;;;;;;5034100;28;20049;-87
2022/07/21 11:19:42;;;;;;;3.70;1.92;;;24.40;99.90;;;;;;5034677;28;20088;-88
2022/07/21 11:22:15;;;;;;;4.40;1.80;;;24.40;99.90;;;;;;5036332;28;20052;-87
2022/07/21 11:24:45;;;;;;;2.28;1.83;;;24.50;99.90;;;;;;5035531;28;20037;-87
2022/07/21 11:27:14;;;;;;;6.60;3.15;;;25.00;99.90;;;;;;5033710;28;20076;-86
2022/07/21 11:29:42;;;;;;;2.15;1.65;;;24.70;99.90;;;;;;5033367;28;20060;-88
2022/07/21 11:32:09;;;;;;;3.63;2.05;;;24.90;99.90;;;;;;5035995;28;20456;-87
2022/07/21 11:34:50;;;;;;;1.65;1.35;;;25.00;99.90;;;;;;5055901;28;20037;-87
2022/07/21 11:37:18;;;;;;;3.70;2.33;;;25.10;99.90;;;;;;5036509;28;20048;-88
2022/07/21 11:39:44;;;;;;;4.45;2.33;;;25.40;99.90;;;;;;5053600;28;20037;-87
2022/07/21 11:42:15;;;;;;;4.63;2.85;;;25.70;99.90;;;;;;5057149;28;20089;-87
2022/07/21 11:44:42;;;;;;;3.17;2.28;;;26.20;99.90;;;;;;5057444;28;20085;-88
2022/07/21 11:47:11;;;;;;;3.65;2.08;;;25.90;99.90;;;;;;5055595;28;20073;-87
2022/07/21 11:49:42;;;;;;;3.05;1.45;;;26.10;99.90;;;;;;5042256;28;20052;-88
2022/07/21 11:52:17;;;;;;;4.38;2.00;;;25.90;99.90;;;;;;5035314;28;20045;-87
2022/07/21 11:54:48;;;;;;;2.53;1.70;;;26.10;99.90;;;;;;5034553;28;20046;-86
2022/07/21 11:57:16;;;;;;;5.82;2.22;;;26.30;99.90;;;;;;5034653;28;20068;-86
2022/07/21 11:59:43;;;;;;;1.83;1.52;;;26.20;99.90;;;;;;5040338;28;20063;-87
2022/07/21 12:06:20;;;;;;;1.67;1.17;;;25.70;99.90;;;;;;5003865;28;20136;-88
2022/07/21 12:12:38;;;;;;;5.50;1.88;;;25.30;99.90;;;;;;4986352;28;20060;-87
2022/07/21 12:15:27;;;;;;;2.00;1.65;;;25.60;99.90;;;;;;4985697;28;20340;-87
2022/07/21 12:21:23;;;;;;;4.72;1.85;;;25.80;99.90;;;;;;5001100;28;20065;-89
2022/07/21 12:24:43;;;;;;;0.88;0.77;;;25.70;99.90;;;;;;5038033;28;20051;-89
2022/07/21 12:31:20;;;;;;;2.65;1.55;;;25.40;99.90;;;;;;4971535;28;20492;-88
2022/07/21 12:33:47;;;;;;;1.88;1.65;;;25.00;99.90;;;;;;5039161;28;20053;-90
2022/07/21 12:36:13;;;;;;;11.82;2.97;;;25.40;99.90;;;;;;5040604;28;20073;-88
2022/07/21 12:38:39;;;;;;;6.45;1.90;;;24.90;99.90;;;;;;5042081;28;20372;-88
2022/07/21 12:41:06;;;;;;;4.20;0.93;;;24.90;99.90;;;;;;5040835;28;20049;-88
2022/07/21 12:43:32;;;;;;;2.72;1.40;;;24.90;99.90;;;;;;5043680;28;20046;-89
2022/07/21 12:46:08;;;;;;;8.10;1.40;;;24.90;99.90;;;;;;5043193;28;20076;-89
2022/07/21 12:48:36;;;;;;;5.60;3.00;;;24.90;99.90;;;;;;5043262;28;20045;-88
2022/07/21 12:51:10;;;;;;;2.67;1.50;;;24.60;99.90;;;;;;5044501;28;20037;-88
2022/07/21 12:53:50;;;;;;;2.05;1.15;;;24.50;99.90;;;;;;5043655;28;20100;-87
2022/07/21 12:56:20;;;;;;;2.60;1.52;;;24.50;99.90;;;;;;5047069;28;20057;-87
2022/07/21 12:58:50;;;;;;;1.85;1.50;;;24.40;99.90;;;;;;5041702;28;20116;-88
2022/07/21 13:01:17;;;;;;;2.83;2.10;;;25.00;99.90;;;;;;5044333;28;20129;-88
2022/07/21 13:03:43;;;;;;;4.00;2.33;;;23.70;99.90;;;;;;5041701;28;20041;-89
2022/07/21 13:06:10;;;;;;;12.48;4.18;;;23.40;99.90;;;;;;5042982;28;20052;-86
2022/07/21 13:08:38;;;;;;;1.88;1.58;;;23.30;99.90;;;;;;5043143;28;20101;-88
2022/07/21 13:11:04;;;;;;;3.20;1.30;;;22.90;99.90;;;;;;5045165;28;20107;-86
2022/07/21 13:13:31;;;;;;;2.38;1.30;;;22.70;99.90;;;;;;5040186;28;20099;-87
2022/07/21 13:16:00;;;;;;;3.08;1.10;;;22.50;99.90;;;;;;5047520;28;20045;-89
2022/07/21 13:18:25;;;;;;;2.15;1.95;;;22.10;99.90;;;;;;5041500;28;20048;-91
2022/07/21 13:20:52;;;;;;;1.67;1.58;;;21.40;99.90;;;;;;5044735;28;20037;-88